Time;durP1;ratioP1;P1;durP2;ratioP2;P2;SDS_P1;SDS_P2;PMS_P1;PMS_P2;Temp;Humidity;BMP_temperature;BMP_pressure;BME280_temperature;BME280_humidity;BME280_pressure;Samples;Min_cycle;Max_cycle;Signal;HPM_P1;HPM_P2
2022/02/04 00:21:52;;;;;;;24.75;18.05;;;7.70;95.10;;;;;;2093799;28;20511;-90
2022/02/04 00:23:57;;;;;;;22.65;16.83;;;7.70;95.10;;;;;;2092949;28;20031;-90
2022/02/04 00:25:02;;;;;;;24.27;18.48;;;7.70;95.10;;;;;;2095604;28;20037;-90
2022/02/04 00:26:11;;;;;;;23.05;17.80;;;7.70;95.10;;;;;;2086102;28;20029;-91
2022/02/04 00:27:18;;;;;;;24.23;18.38;;;7.70;95.10;;;;;;2095687;28;20434;-90
2022/02/04 00:28:30;;;;;;;24.25;18.40;;;7.70;95.10;;;;;;2100791;28;20455;-90
2022/02/04 00:29:40;;;;;;;25.00;18.27;;;7.70;95.10;;;;;;2100219;28;20032;-89
2022/02/04 00:30:46;;;;;;;24.77;18.92;;;7.70;95.10;;;;;;2087988;28;20035;-89
2022/02/04 00:31:52;;;;;;;24.80;18.77;;;7.70;95.10;;;;;;2079153;28;20116;-89
2022/02/04 00:32:56;;;;;;;25.30;18.55;;;7.70;95.10;;;;;;2080899;28;20033;-90
2022/02/04 00:34:03;;;;;;;24.48;18.55;;;7.70;95.20;;;;;;2073053;28;20065;-89
2022/02/04 00:35:17;;;;;;;24.02;18.13;;;7.70;95.10;;;;;;2075944;28;20127;-90
2022/02/04 00:36:30;;;;;;;23.95;17.77;;;7.70;95.10;;;;;;2086944;28;20056;-90
2022/02/04 00:37:42;;;;;;;23.55;17.67;;;7.70;95.20;;;;;;2092249;28;20087;-90
2022/02/04 00:38:47;;;;;;;23.55;17.90;;;7.70;95.10;;;;;;2079079;28;20065;-90
2022/02/04 00:39:56;;;;;;;22.13;16.58;;;7.70;95.10;;;;;;2087615;28;20044;-90
2022/02/04 00:41:04;;;;;;;22.27;17.55;;;7.70;95.10;;;;;;2094294;28;20060;-90
2022/02/04 00:42:08;;;;;;;23.17;17.10;;;7.70;95.10;;;;;;2090219;28;20029;-90
2022/02/04 00:43:13;;;;;;;23.08;17.38;;;7.70;95.10;;;;;;2098700;28;20051;-90
2022/02/04 00:44:23;;;;;;;22.33;16.65;;;7.70;95.10;;;;;;2088903;28;20136;-90
2022/02/04 00:45:49;;;;;;;23.58;16.88;;;7.70;95.10;;;;;;2083591;28;20462;-91
2022/02/04 00:47:58;;;;;;;22.08;16.42;;;7.70;95.40;;;;;;2085865;28;20140;-90
2022/02/04 00:50:05;;;;;;;21.98;16.65;;;7.80;95.10;;;;;;2082886;28;20047;-90
2022/02/04 00:53:18;;;;;;;22.08;16.55;;;7.70;95.10;;;;;;2080859;28;20045;-91
2022/02/04 00:55:29;;;;;;;21.08;15.60;;;7.80;95.10;;;;;;2082340;28;20042;-90
2022/02/04 01:06:28;;;;;;;21.17;15.63;;;7.80;95.10;;;;;;2075304;28;20038;-90
2022/02/04 01:26:42;;;;;;;22.60;16.02;;;7.70;95.00;;;;;;2082689;28;20048;-90
2022/02/04 01:27:46;;;;;;;20.95;15.40;;;7.70;95.00;;;;;;2086285;28;20175;-91
2022/02/04 01:28:49;;;;;;;23.13;16.80;;;7.70;95.00;;;;;;2084328;28;20045;-89
2022/02/04 01:30:36;;;;;;;23.98;17.73;;;7.70;95.00;;;;;;2066619;28;20037;-90
2022/02/04 01:31:14;;;;;;;;;;;7.70;95.00;;;;;;2060561;28;20049;-90
2022/02/04 01:32:15;;;;;;;21.98;15.43;;;7.70;95.00;;;;;;2081988;28;20097;-90
2022/02/04 01:33:16;;;;;;;21.77;16.02;;;7.70;95.00;;;;;;2079837;28;20415;-90
2022/02/04 01:34:18;;;;;;;21.70;15.80;;;7.70;95.20;;;;;;2096894;28;20123;-90
2022/02/04 01:35:18;;;;;;;22.15;15.77;;;7.70;95.00;;;;;;2098034;28;20094;-90
2022/02/04 01:36:19;;;;;;;20.08;15.10;;;7.80;95.00;;;;;;2083721;28;20072;-90
2022/02/04 01:37:20;;;;;;;21.70;15.38;;;7.70;95.00;;;;;;2084566;28;20507;-90
2022/02/04 01:38:25;;;;;;;21.42;16.00;;;7.70;95.00;;;;;;2078975;28;20026;-90
2022/02/04 01:39:26;;;;;;;21.15;15.15;;;7.70;95.00;;;;;;2073722;28;20522;-90
2022/02/04 01:40:26;;;;;;;22.10;14.95;;;7.70;95.00;;;;;;2077264;28;20327;-90
2022/02/04 01:41:27;;;;;;;21.77;15.00;;;7.70;95.00;;;;;;2081634;28;20045;-90
2022/02/04 01:42:27;;;;;;;21.40;16.05;;;7.80;95.00;;;;;;2089939;28;20083;-91
2022/02/04 01:43:28;;;;;;;19.92;14.70;;;7.70;95.00;;;;;;2081243;28;20049;-90
2022/02/04 01:44:29;;;;;;;20.35;15.45;;;7.80;95.10;;;;;;2071914;28;20034;-90
2022/02/04 01:45:30;;;;;;;22.60;17.10;;;7.80;95.00;;;;;;2084923;28;20038;-90
2022/02/04 01:46:31;;;;;;;21.63;15.82;;;7.80;95.00;;;;;;2094167;28;20037;-91
2022/02/04 01:47:31;;;;;;;21.38;16.08;;;7.80;95.00;;;;;;2098427;28;20529;-90
2022/02/04 01:48:33;;;;;;;21.60;16.30;;;7.80;95.00;;;;;;2081202;28;20029;-89
2022/02/04 01:49:36;;;;;;;20.95;15.80;;;7.80;95.00;;;;;;2081850;28;20548;-90
2022/02/04 01:50:37;;;;;;;21.48;15.82;;;7.80;95.00;;;;;;2081518;28;20084;-90
2022/02/04 01:51:37;;;;;;;22.33;16.52;;;7.80;95.00;;;;;;2088704;28;20523;-90
2022/02/04 01:52:39;;;;;;;21.45;15.88;;;7.80;95.00;;;;;;2071711;28;20880;-90
2022/02/04 01:53:40;;;;;;;21.45;16.10;;;7.80;95.00;;;;;;2073610;28;20409;-90
2022/02/04 01:54:40;;;;;;;20.52;14.77;;;7.80;95.30;;;;;;2080483;28;20048;-90
2022/02/04 01:55:43;;;;;;;20.80;14.93;;;7.80;95.00;;;;;;2089795;28;20061;-90
2022/02/04 01:56:43;;;;;;;19.90;15.45;;;7.80;95.00;;;;;;2072984;28;20121;-90
2022/02/04 01:57:44;;;;;;;21.80;15.55;;;7.80;95.00;;;;;;2064582;28;20568;-90
2022/02/04 01:58:45;;;;;;;20.25;14.98;;;7.80;95.00;;;;;;2088800;28;20116;-90
2022/02/04 01:59:45;;;;;;;21.45;15.73;;;7.80;95.00;;;;;;2076015;28;20561;-90
2022/02/04 02:00:46;;;;;;;23.02;16.60;;;7.80;95.00;;;;;;2074229;28;20046;-90
2022/02/04 02:01:47;;;;;;;21.10;16.13;;;7.70;95.00;;;;;;2075265;28;20045;-90
2022/02/04 02:02:50;;;;;;;23.00;17.10;;;7.80;95.30;;;;;;2081707;28;20053;-89
2022/02/04 02:03:50;;;;;;;24.55;17.15;;;7.70;95.00;;;;;;2092935;28;20036;-90
2022/02/04 02:04:51;;;;;;;21.10;16.38;;;7.70;95.00;;;;;;2089700;28;20127;-90
2022/02/04 02:05:54;;;;;;;20.60;15.70;;;7.70;95.00;;;;;;2086524;28;20041;-90
2022/02/04 02:06:59;;;;;;;21.90;16.02;;;7.70;95.00;;;;;;2089624;28;20024;-90
2022/02/04 02:08:07;;;;;;;19.20;14.98;;;7.80;95.00;;;;;;2090491;28;20037;-90
2022/02/04 02:09:07;;;;;;;21.35;14.90;;;7.70;95.00;;;;;;2097648;28;20584;-90
2022/02/04 02:10:12;;;;;;;19.52;14.60;;;7.70;95.00;;;;;;2089185;28;20037;-90
2022/02/04 02:11:13;;;;;;;19.83;14.52;;;7.70;95.00;;;;;;2082015;28;20061;-90
2022/02/04 02:12:16;;;;;;;19.83;15.25;;;7.70;95.00;;;;;;2099711;28;20043;-90
2022/02/04 02:14:24;;;;;;;19.08;14.43;;;7.70;95.00;;;;;;2094844;28;20384;-90
2022/02/04 02:15:36;;;;;;;20.90;14.82;;;7.70;95.00;;;;;;2091413;28;20056;-90
2022/02/04 02:34:03;;;;;;;18.63;13.30;;;7.70;94.90;;;;;;2086932;28;20043;-90
2022/02/04 02:39:35;;;;;;;15.45;10.65;;;7.70;94.90;;;;;;2063481;28;20046;-90
2022/02/04 02:41:44;;;;;;;17.30;12.70;;;7.70;94.90;;;;;;2095376;28;20506;-89
2022/02/04 02:42:22;;;;;;;17.13;11.73;;;7.70;94.90;;;;;;2093661;28;20546;-90
2022/02/04 02:44:37;;;;;;;16.13;12.10;;;7.70;94.80;;;;;;2091797;28;20041;-89
2022/02/04 02:55:05;;;;;;;13.98;10.23;;;7.70;94.90;;;;;;2090084;28;20033;-90
2022/02/04 02:58:50;;;;;;;12.63;9.25;;;7.70;94.90;;;;;;2096950;28;20186;-90
2022/02/04 03:00:04;;;;;;;16.42;10.40;;;7.70;95.20;;;;;;2092115;28;20072;-91
2022/02/04 03:01:07;;;;;;;14.80;10.50;;;7.70;94.90;;;;;;2106303;28;20136;-89
2022/02/04 03:02:08;;;;;;;15.43;11.20;;;7.70;94.90;;;;;;2095306;28;20036;-90
2022/02/04 03:03:11;;;;;;;17.38;11.65;;;7.70;94.90;;;;;;2080985;28;20570;-90
2022/02/04 03:04:15;;;;;;;17.77;11.57;;;7.70;94.90;;;;;;2079644;28;20083;-90
2022/02/04 03:05:16;;;;;;;16.90;11.60;;;7.70;94.90;;;;;;2084307;28;20132;-90
2022/02/04 03:06:16;;;;;;;16.42;12.18;;;7.70;94.90;;;;;;2103121;28;20448;-90
2022/02/04 03:07:17;;;;;;;18.00;12.18;;;7.70;94.90;;;;;;2087277;28;20503;-90
2022/02/04 03:08:20;;;;;;;15.85;11.48;;;7.70;94.90;;;;;;2072193;28;20041;-89
2022/02/04 03:09:20;;;;;;;16.55;11.82;;;7.70;94.90;;;;;;2086721;28;20044;-89
2022/02/04 03:10:21;;;;;;;15.80;11.35;;;7.70;94.90;;;;;;2076704;28;20507;-90
2022/02/04 03:11:22;;;;;;;16.63;11.68;;;7.70;94.90;;;;;;2075659;28;20136;-90
2022/02/04 03:12:22;;;;;;;14.82;11.05;;;7.70;94.90;;;;;;2092218;28;20526;-90
2022/02/04 03:13:26;;;;;;;14.73;10.95;;;7.70;94.90;;;;;;2103486;28;20457;-90
2022/02/04 03:14:28;;;;;;;15.90;11.20;;;7.70;94.90;;;;;;2091298;28;20029;-90
2022/02/04 03:15:28;;;;;;;15.20;10.65;;;7.70;94.90;;;;;;2082511;28;20080;-89
2022/02/04 03:16:29;;;;;;;15.90;11.57;;;7.80;94.90;;;;;;2086131;28;20112;-89
2022/02/04 03:17:30;;;;;;;17.40;12.10;;;7.70;94.80;;;;;;2087929;28;20033;-90
2022/02/04 03:18:34;;;;;;;15.13;11.30;;;7.70;94.80;;;;;;2080944;28;20038;-90
2022/02/04 03:19:36;;;;;;;14.75;10.07;;;7.80;94.80;;;;;;2088639;28;20094;-90
2022/02/04 03:20:48;;;;;;;13.48;9.82;;;7.80;94.80;;;;;;2075137;28;20412;-89
2022/02/04 03:21:49;;;;;;;14.10;10.00;;;7.80;94.80;;;;;;2083519;28;20049;-90
2022/02/04 03:22:52;;;;;;;13.55;9.50;;;7.80;94.80;;;;;;2103901;28;20032;-90
2022/02/04 03:23:57;;;;;;;14.57;9.73;;;7.80;95.10;;;;;;2103965;28;20055;-91
2022/02/04 03:25:02;;;;;;;13.07;9.55;;;7.80;94.80;;;;;;2098076;28;20047;-90
2022/02/04 03:26:15;;;;;;;15.77;10.60;;;7.80;94.80;;;;;;2073857;28;20555;-90
2022/02/04 03:27:17;;;;;;;14.65;10.15;;;7.80;94.80;;;;;;2068784;28;20054;-90
2022/02/04 03:28:23;;;;;;;14.65;9.60;;;7.80;94.80;;;;;;2081947;28;20200;-89
2022/02/04 03:29:32;;;;;;;13.80;9.60;;;7.80;94.80;;;;;;2096833;28;20480;-90
2022/02/04 03:30:36;;;;;;;14.77;9.30;;;7.80;94.80;;;;;;2087329;28;20128;-90
2022/02/04 03:31:45;;;;;;;14.88;9.30;;;7.80;94.80;;;;;;2107624;28;20142;-89
2022/02/04 03:32:54;;;;;;;16.00;10.45;;;7.80;95.00;;;;;;2098069;28;20048;-89
2022/02/04 03:33:55;;;;;;;13.25;9.38;;;7.80;94.80;;;;;;2095643;28;20043;-89
2022/02/04 03:34:55;;;;;;;14.48;9.75;;;7.80;94.70;;;;;;2110623;28;20044;-89
2022/02/04 03:35:56;;;;;;;14.13;9.85;;;7.80;94.70;;;;;;2107306;28;20043;-90
2022/02/04 03:36:57;;;;;;;13.15;9.35;;;7.80;94.70;;;;;;2089352;28;20025;-89
2022/02/04 03:37:57;;;;;;;13.30;9.30;;;7.80;94.70;;;;;;2098128;28;20049;-90
2022/02/04 03:38:58;;;;;;;13.00;8.63;;;7.80;94.80;;;;;;2104090;28;20039;-89
2022/02/04 03:39:59;;;;;;;12.85;8.60;;;7.80;94.80;;;;;;2103062;28;20112;-90
2022/02/04 03:40:59;;;;;;;13.27;9.07;;;7.80;94.80;;;;;;2091800;28;20100;-90
2022/02/04 03:42:00;;;;;;;12.93;8.88;;;7.80;94.80;;;;;;2096804;28;20084;-90
2022/02/04 03:43:01;;;;;;;12.82;8.98;;;7.80;94.80;;;;;;2103150;28;20036;-89
2022/02/04 03:44:02;;;;;;;12.20;8.68;;;7.80;94.70;;;;;;2094966;28;20043;-89
2022/02/04 03:45:04;;;;;;;14.32;9.00;;;7.80;94.80;;;;;;2092184;28;20039;-89
2022/02/04 03:46:07;;;;;;;11.73;8.48;;;7.80;94.80;;;;;;2105395;28;20136;-89
2022/02/04 03:47:08;;;;;;;11.60;8.30;;;7.80;94.70;;;;;;2098723;28;20096;-89
2022/02/04 03:48:08;;;;;;;11.55;8.05;;;7.80;94.70;;;;;;2084765;28;20043;-89
2022/02/04 03:49:09;;;;;;;13.65;9.85;;;7.80;94.70;;;;;;2107977;28;20037;-89
2022/02/04 03:50:10;;;;;;;12.85;8.68;;;7.80;94.70;;;;;;2101988;28;20078;-89
2022/02/04 03:51:10;;;;;;;13.77;9.15;;;7.80;94.70;;;;;;2091943;28;20041;-89
2022/02/04 03:52:11;;;;;;;12.57;8.70;;;7.80;94.70;;;;;;2080823;28;20486;-90
2022/02/04 03:53:15;;;;;;;13.43;8.80;;;7.80;94.70;;;;;;2072714;28;20484;-89
2022/02/04 03:54:16;;;;;;;11.82;7.97;;;7.80;95.00;;;;;;2083734;28;20044;-89
2022/02/04 03:55:17;;;;;;;12.68;8.57;;;7.80;94.70;;;;;;2099426;28;20041;-90
2022/02/04 03:56:19;;;;;;;12.23;8.30;;;7.80;94.70;;;;;;2097587;28;20037;-90
2022/02/04 03:57:20;;;;;;;12.55;8.27;;;7.80;94.70;;;;;;2089234;28;20466;-90
2022/02/04 03:58:20;;;;;;;12.13;8.38;;;7.80;95.00;;;;;;2073801;28;20092;-90
2022/02/04 03:59:25;;;;;;;11.63;7.55;;;7.80;94.70;;;;;;2090999;28;20041;-89
2022/02/04 04:00:25;;;;;;;10.70;7.63;;;7.80;94.70;;;;;;2091849;28;20033;-90
2022/02/04 04:01:26;;;;;;;10.88;7.55;;;7.80;94.70;;;;;;2097226;28;20040;-89
2022/02/04 04:02:27;;;;;;;11.35;7.60;;;7.80;94.70;;;;;;2097619;28;20037;-90
2022/02/04 04:03:27;;;;;;;10.45;7.57;;;7.80;94.70;;;;;;2090626;28;20567;-89
2022/02/04 04:04:32;;;;;;;11.80;7.82;;;7.90;94.70;;;;;;2091581;28;20029;-91
2022/02/04 04:05:37;;;;;;;10.82;7.38;;;7.80;94.60;;;;;;2098963;28;20041;-90
2022/02/04 04:06:37;;;;;;;12.82;7.90;;;7.80;94.60;;;;;;2082737;28;20038;-90
2022/02/04 04:07:44;;;;;;;11.25;7.38;;;7.80;94.60;;;;;;2086261;28;20037;-89
2022/02/04 04:08:45;;;;;;;10.77;7.28;;;7.80;94.60;;;;;;2089199;28;20136;-90
2022/02/04 04:09:54;;;;;;;11.45;7.78;;;7.80;94.60;;;;;;2097177;28;20044;-89
2022/02/04 04:10:55;;;;;;;11.18;7.22;;;7.80;94.60;;;;;;2098180;28;20047;-89
2022/02/04 04:11:56;;;;;;;10.82;7.55;;;7.80;94.60;;;;;;2082435;28;20138;-90
2022/02/04 04:12:58;;;;;;;12.43;7.88;;;7.80;94.60;;;;;;2089205;28;20056;-89
2022/02/04 04:14:00;;;;;;;9.68;6.97;;;7.80;94.60;;;;;;2089846;28;20043;-90
2022/02/04 04:15:06;;;;;;;10.32;7.03;;;7.90;94.60;;;;;;2082977;28;20026;-90
2022/02/04 04:16:07;;;;;;;10.48;6.97;;;7.80;94.60;;;;;;2090455;28;20088;-89
2022/02/04 04:17:07;;;;;;;11.25;7.60;;;7.90;94.60;;;;;;2091908;28;20118;-89
2022/02/04 04:18:12;;;;;;;10.35;7.13;;;7.90;94.60;;;;;;2098529;28;20102;-89
2022/02/04 04:19:14;;;;;;;10.52;6.85;;;7.90;94.60;;;;;;2074713;28;20527;-89
2022/02/04 04:20:21;;;;;;;9.93;7.05;;;7.90;94.60;;;;;;2080437;28;20088;-89
2022/02/04 04:21:21;;;;;;;9.20;6.50;;;7.90;94.60;;;;;;2093003;28;20462;-89
2022/02/04 04:22:22;;;;;;;9.77;6.47;;;7.90;94.60;;;;;;2099601;28;20131;-90
2022/02/04 04:23:22;;;;;;;9.18;6.75;;;7.90;94.60;;;;;;2089866;28;20035;-90
2022/02/04 04:24:23;;;;;;;11.13;7.50;;;7.90;94.60;;;;;;2089781;28;20041;-90
2022/02/04 04:25:24;;;;;;;10.50;6.97;;;7.90;94.60;;;;;;2090189;28;20037;-90
2022/02/04 04:26:25;;;;;;;9.80;6.78;;;7.80;94.60;;;;;;2074303;28;20046;-90
2022/02/04 04:27:26;;;;;;;9.95;6.72;;;7.90;94.60;;;;;;2074323;28;20061;-90
2022/02/04 04:28:26;;;;;;;9.25;6.85;;;7.90;94.60;;;;;;2081648;28;20044;-90
2022/02/04 04:29:27;;;;;;;10.43;6.80;;;7.90;94.60;;;;;;2088566;28;20033;-90
2022/02/04 04:30:27;;;;;;;9.10;6.53;;;7.90;94.60;;;;;;2072812;28;20046;-89
2022/02/04 04:31:28;;;;;;;9.63;6.38;;;7.90;94.60;;;;;;2065611;28;20046;-89
2022/02/04 04:32:29;;;;;;;10.13;7.43;;;7.90;94.60;;;;;;2074263;28;20042;-90
2022/02/04 04:33:29;;;;;;;8.55;6.38;;;7.90;94.60;;;;;;2082114;28;20064;-89
2022/02/04 04:34:30;;;;;;;12.13;7.10;;;7.90;94.50;;;;;;2080647;28;20033;-90
2022/02/04 04:35:31;;;;;;;9.73;6.82;;;7.90;94.60;;;;;;2072061;28;20109;-90
2022/02/04 04:36:34;;;;;;;10.32;6.57;;;7.80;94.50;;;;;;2089586;28;20410;-89
2022/02/04 04:37:35;;;;;;;9.27;6.20;;;7.80;94.50;;;;;;2082320;28;20428;-90
2022/02/04 04:38:48;;;;;;;9.88;6.10;;;7.90;94.50;;;;;;2066014;28;20037;-90
2022/02/04 04:40:25;;;;;;;8.85;5.95;;;7.90;94.50;;;;;;2075308;28;20443;-89
2022/02/04 04:41:38;;;;;;;10.75;7.00;;;7.80;94.50;;;;;;2080590;28;20038;-90
2022/02/04 04:43:32;;;;;;;10.23;6.22;;;7.90;94.50;;;;;;2073861;28;20496;-89
2022/02/04 04:45:33;;;;;;;9.70;6.55;;;7.80;94.40;;;;;;2095689;28;20059;-89
2022/02/04 05:28:15;;;;;;;7.15;4.97;;;7.80;94.20;;;;;;2069291;28;20055;-90
2022/02/04 05:29:16;;;;;;;8.20;5.50;;;7.80;94.20;;;;;;2087211;28;20097;-89
2022/02/04 05:30:16;;;;;;;9.40;5.25;;;7.80;94.20;;;;;;2076277;28;20181;-90
2022/02/04 05:31:17;;;;;;;7.90;5.00;;;7.80;94.20;;;;;;2065544;28;20102;-89
2022/02/04 05:32:18;;;;;;;9.48;5.70;;;7.80;94.20;;;;;;2086545;28;20037;-89
2022/02/04 05:33:18;;;;;;;7.70;5.10;;;7.80;94.20;;;;;;2090391;28;20127;-90
2022/02/04 05:34:20;;;;;;;7.53;5.30;;;7.80;94.20;;;;;;2097842;28;20041;-90
2022/02/04 05:35:21;;;;;;;8.20;5.55;;;7.80;94.20;;;;;;2081546;28;20128;-89
2022/02/04 05:36:22;;;;;;;7.00;4.40;;;7.80;94.20;;;;;;2056861;28;20535;-89
2022/02/04 05:37:24;;;;;;;7.30;5.30;;;7.80;94.20;;;;;;2073660;28;20049;-89
2022/02/04 05:38:26;;;;;;;9.45;5.60;;;7.80;94.20;;;;;;2074515;28;20161;-89
2022/02/04 05:39:33;;;;;;;7.45;4.93;;;7.80;94.20;;;;;;2079530;28;20041;-89
2022/02/04 05:40:40;;;;;;;7.60;5.00;;;7.80;94.30;;;;;;2083552;28;20041;-89
2022/02/04 05:41:45;;;;;;;8.70;5.18;;;7.80;94.20;;;;;;2081359;28;20527;-90
2022/02/04 05:42:53;;;;;;;8.98;5.20;;;7.80;94.20;;;;;;2066698;28;20066;-89
2022/02/04 05:43:56;;;;;;;7.60;4.90;;;7.80;94.20;;;;;;2064397;28;20402;-89
2022/02/04 05:45:07;;;;;;;7.03;5.13;;;7.80;94.20;;;;;;2076131;28;20041;-88
2022/02/04 05:46:18;;;;;;;7.72;4.93;;;7.80;94.20;;;;;;2092298;28;20550;-90
2022/02/04 05:47:19;;;;;;;6.97;4.75;;;7.80;94.20;;;;;;2073517;28;20045;-89
2022/02/04 05:48:21;;;;;;;7.13;4.60;;;7.80;94.20;;;;;;2078122;28;20029;-90
2022/02/04 05:49:24;;;;;;;8.55;5.22;;;7.80;94.20;;;;;;2090979;28;20045;-90
2022/02/04 05:52:34;;;;;;;7.97;5.05;;;7.80;94.20;;;;;;2086714;28;20132;-90
2022/02/04 05:53:53;;;;;;;8.52;5.53;;;7.80;94.20;;;;;;2087643;28;20041;-89
2022/02/04 05:55:17;;;;;;;7.25;4.50;;;7.80;94.20;;;;;;2080884;28;20132;-90
2022/02/04 05:57:28;;;;;;;8.43;4.57;;;7.80;94.20;;;;;;2081937;28;20048;-90
2022/02/04 05:59:48;;;;;;;7.53;4.72;;;7.80;94.10;;;;;;2088628;28;20037;-90
2022/02/04 06:01:06;;;;;;;8.27;4.97;;;7.80;94.10;;;;;;2079189;28;20034;-89
2022/02/04 06:10:41;;;;;;;7.35;4.65;;;7.80;94.10;;;;;;2080437;28;20081;-89
2022/02/04 06:22:59;;;;;;;6.97;4.10;;;7.80;94.00;;;;;;2075714;28;20036;-90
2022/02/04 06:24:00;;;;;;;6.70;3.92;;;7.80;94.00;;;;;;2057729;28;20035;-89
2022/02/04 06:25:00;;;;;;;9.05;4.68;;;7.80;93.90;;;;;;2049664;28;20486;-89
2022/02/04 06:26:01;;;;;;;7.70;4.10;;;7.80;93.90;;;;;;2063521;28;20070;-88
2022/02/04 06:27:03;;;;;;;5.22;3.55;;;7.80;93.90;;;;;;2073867;28;20042;-87
2022/02/04 06:28:04;;;;;;;5.63;3.83;;;7.80;93.90;;;;;;2081507;28;20037;-90
2022/02/04 06:29:05;;;;;;;6.53;3.63;;;7.80;94.00;;;;;;2073305;28;20152;-89
2022/02/04 06:30:06;;;;;;;5.30;3.40;;;7.80;94.00;;;;;;2065052;28;20047;-88
2022/02/04 06:31:07;;;;;;;5.82;3.47;;;7.80;94.00;;;;;;2085345;28;20030;-89
2022/02/04 06:32:09;;;;;;;5.53;3.50;;;7.80;94.00;;;;;;2082736;28;20495;-90
2022/02/04 06:33:10;;;;;;;5.90;3.28;;;7.80;93.90;;;;;;2081050;28;20037;-89
2022/02/04 06:34:10;;;;;;;5.28;3.10;;;7.80;93.90;;;;;;2087718;28;20519;-91
2022/02/04 06:35:11;;;;;;;5.43;3.22;;;7.80;93.90;;;;;;2098472;28;20637;-89
2022/02/04 06:36:12;;;;;;;5.00;3.08;;;7.80;93.90;;;;;;2089003;28;20092;-87
2022/02/04 06:37:12;;;;;;;6.72;3.63;;;7.90;93.90;;;;;;2081065;28;20586;-88
2022/02/04 06:38:13;;;;;;;4.90;3.05;;;7.90;93.90;;;;;;2084882;28;20063;-89
2022/02/04 06:39:14;;;;;;;5.22;3.10;;;7.90;93.90;;;;;;2087838;28;20037;-89
2022/02/04 06:40:14;;;;;;;4.97;3.17;;;7.90;93.90;;;;;;2082627;28;20033;-89
2022/02/04 06:41:15;;;;;;;5.43;3.50;;;7.90;93.90;;;;;;2075786;28;20109;-89
2022/02/04 06:42:24;;;;;;;5.05;3.08;;;7.90;93.90;;;;;;2094371;28;20557;-91
2022/02/04 06:43:25;;;;;;;5.43;3.00;;;7.90;93.90;;;;;;2100495;28;20029;-89
2022/02/04 06:44:25;;;;;;;5.50;3.00;;;7.90;93.90;;;;;;2092008;28;20056;-91
2022/02/04 06:45:26;;;;;;;5.22;3.05;;;7.90;93.90;;;;;;2078086;28;20033;-89
2022/02/04 06:46:27;;;;;;;5.03;3.20;;;7.90;93.90;;;;;;2082178;28;20042;-90
2022/02/04 06:47:28;;;;;;;5.65;2.90;;;7.90;94.20;;;;;;2088008;28;20033;-89
2022/02/04 06:48:28;;;;;;;4.82;2.83;;;7.90;93.90;;;;;;2072597;28;20136;-90
2022/02/04 06:49:29;;;;;;;5.55;3.00;;;7.90;93.90;;;;;;2063441;28;20406;-86
2022/02/04 06:50:30;;;;;;;4.90;3.08;;;7.90;93.90;;;;;;2069375;28;20044;-88
2022/02/04 06:51:30;;;;;;;5.93;3.10;;;7.90;93.90;;;;;;2071509;28;20462;-88
2022/02/04 06:52:31;;;;;;;4.68;3.08;;;7.90;93.90;;;;;;2078922;28;20084;-88
2022/02/04 06:53:31;;;;;;;5.13;3.10;;;7.90;93.90;;;;;;2088600;28;20088;-88
2022/02/04 06:54:32;;;;;;;4.43;2.92;;;7.90;93.90;;;;;;2080230;28;20092;-88
2022/02/04 06:55:33;;;;;;;5.07;2.83;;;7.90;93.90;;;;;;2079402;28;20489;-87
2022/02/04 06:56:35;;;;;;;4.97;2.65;;;7.90;93.80;;;;;;2080817;28;20033;-88
2022/02/04 06:57:36;;;;;;;4.95;2.83;;;7.90;93.80;;;;;;2089309;28;20120;-88
2022/02/04 06:58:37;;;;;;;4.18;2.60;;;7.90;93.80;;;;;;2089174;28;20029;-87
2022/02/04 06:59:40;;;;;;;3.50;2.40;;;7.90;93.90;;;;;;2085654;28;20403;-89
2022/02/04 07:00:41;;;;;;;5.57;2.78;;;7.90;93.80;;;;;;2080964;28;20037;-88
2022/02/04 07:01:42;;;;;;;4.63;2.63;;;7.90;93.80;;;;;;2080027;28;20288;-88
2022/02/04 07:02:43;;;;;;;5.32;3.00;;;7.90;94.10;;;;;;2072948;28;20042;-88
2022/02/04 07:03:44;;;;;;;5.60;3.20;;;7.90;93.80;;;;;;2074788;28;20041;-87
2022/02/04 07:04:44;;;;;;;5.35;2.90;;;7.90;93.80;;;;;;2080655;28;20046;-88
2022/02/04 07:05:55;;;;;;;5.78;2.92;;;7.90;93.80;;;;;;2069222;28;20377;-87
2022/02/04 07:06:58;;;;;;;5.72;3.17;;;7.90;93.80;;;;;;2080464;28;20447;-88
2022/02/04 07:08:08;;;;;;;4.97;2.65;;;7.90;93.80;;;;;;2088850;28;20075;-90
2022/02/04 07:10:42;;;;;;;4.63;2.90;;;8.00;93.80;;;;;;2098430;28;20409;-87
2022/02/04 07:12:36;;;;;;;4.28;2.80;;;8.00;93.80;;;;;;2094244;28;20036;-87
2022/02/04 07:15:08;;;;;;;4.65;3.00;;;8.00;93.80;;;;;;2089902;28;20041;-88
2022/02/04 07:19:49;;;;;;;4.45;2.92;;;8.00;93.80;;;;;;2096915;28;20074;-88
2022/02/04 07:20:52;;;;;;;4.93;3.20;;;8.00;93.70;;;;;;2086782;28;20040;-88
2022/02/04 07:21:53;;;;;;;6.75;4.10;;;8.00;93.70;;;;;;2090248;28;20021;-89
2022/02/04 07:22:53;;;;;;;6.82;3.60;;;8.00;93.70;;;;;;2098650;28;20458;-89
2022/02/04 07:23:54;;;;;;;6.57;3.70;;;8.00;93.70;;;;;;2097450;28;20036;-88
2022/02/04 07:24:57;;;;;;;4.90;3.30;;;8.00;93.70;;;;;;2089033;28;20041;-89
2022/02/04 07:25:58;;;;;;;4.07;3.00;;;8.00;93.70;;;;;;2087322;28;20041;-89
2022/02/04 07:26:59;;;;;;;4.15;3.05;;;8.00;93.60;;;;;;2088269;28;20116;-88
2022/02/04 07:27:59;;;;;;;5.43;3.10;;;8.00;93.60;;;;;;2090203;28;20041;-88
2022/02/04 07:29:01;;;;;;;4.65;3.28;;;8.10;93.70;;;;;;2089167;28;20090;-88
2022/02/04 07:30:03;;;;;;;4.63;2.90;;;8.10;93.70;;;;;;2089887;28;20033;-87
2022/02/04 07:31:05;;;;;;;4.18;2.75;;;8.10;93.70;;;;;;2090953;28;20111;-88
2022/02/04 07:32:12;;;;;;;5.32;3.17;;;8.10;93.70;;;;;;2081345;28;20045;-88
2022/02/04 07:33:17;;;;;;;4.05;3.00;;;8.10;93.70;;;;;;2098439;28;20165;-88
2022/02/04 07:34:39;;;;;;;4.32;3.10;;;8.10;93.70;;;;;;2103506;28;20082;-89
2022/02/04 07:38:37;;;;;;;4.78;3.35;;;8.10;93.70;;;;;;2082413;28;20176;-88
2022/02/04 07:40:58;;;;;;;6.72;3.95;;;8.10;93.60;;;;;;2087840;28;20152;-88
2022/02/04 07:41:59;;;;;;;5.10;3.75;;;8.10;93.60;;;;;;2085714;28;20132;-87
2022/02/04 07:43:00;;;;;;;4.57;3.10;;;8.10;93.60;;;;;;2090081;28;20025;-87
2022/02/04 07:44:01;;;;;;;5.05;3.28;;;8.10;93.90;;;;;;2089811;28;20037;-87
2022/02/04 07:45:02;;;;;;;6.15;3.47;;;8.10;93.60;;;;;;2083829;28;20124;-88
2022/02/04 07:46:03;;;;;;;5.00;3.00;;;8.10;93.60;;;;;;2084760;28;20555;-87
2022/02/04 07:47:04;;;;;;;4.90;3.20;;;8.10;93.60;;;;;;2098524;28;20036;-89
2022/02/04 07:48:05;;;;;;;5.47;3.33;;;8.10;93.70;;;;;;2087148;28;20061;-88
2022/02/04 07:49:06;;;;;;;6.07;3.60;;;8.10;93.70;;;;;;2074041;28;20030;-89
2022/02/04 07:50:08;;;;;;;5.32;3.70;;;8.10;93.70;;;;;;2078674;28;20531;-90
2022/02/04 07:51:08;;;;;;;6.13;3.30;;;8.10;93.60;;;;;;2086613;28;20044;-89
2022/02/04 07:52:09;;;;;;;7.13;3.80;;;8.10;93.60;;;;;;2099038;28;20040;-88
2022/02/04 07:53:10;;;;;;;5.07;3.33;;;8.10;93.60;;;;;;2099552;28;20041;-89
2022/02/04 07:54:11;;;;;;;4.63;3.25;;;8.10;93.60;;;;;;2104356;28;20078;-88
2022/02/04 07:55:11;;;;;;;4.40;3.45;;;8.10;93.60;;;;;;2066158;28;20082;-88
2022/02/04 07:56:12;;;;;;;4.50;3.35;;;8.10;93.70;;;;;;2066165;28;20035;-88
2022/02/04 07:57:13;;;;;;;5.03;3.28;;;8.10;93.60;;;;;;2076074;28;20026;-88
2022/02/04 07:58:14;;;;;;;4.47;3.20;;;8.10;93.70;;;;;;2082041;28;20503;-88
2022/02/04 07:59:15;;;;;;;4.72;2.97;;;8.10;93.70;;;;;;2082761;28;20128;-88
2022/02/04 08:00:17;;;;;;;5.15;3.10;;;8.10;93.60;;;;;;2097833;28;20135;-88
2022/02/04 08:01:24;;;;;;;5.78;3.20;;;8.10;93.70;;;;;;2088936;28;20033;-89
2022/02/04 08:02:24;;;;;;;5.18;3.40;;;8.10;93.70;;;;;;2074899;28;20053;-88
2022/02/04 08:03:32;;;;;;;5.45;3.17;;;8.10;93.70;;;;;;2092124;28;20435;-89
2022/02/04 08:04:35;;;;;;;5.28;3.30;;;8.10;93.70;;;;;;2097782;28;20474;-89
2022/02/04 08:05:36;;;;;;;4.78;2.88;;;8.10;93.90;;;;;;2078207;28;20568;-90
2022/02/04 08:06:42;;;;;;;4.15;2.80;;;8.10;93.70;;;;;;2086538;28;20034;-88
2022/02/04 08:14:43;;;;;;;5.13;3.35;;;8.10;93.70;;;;;;2093256;28;20044;-88
2022/02/04 08:16:23;;;;;;;5.18;3.55;;;8.10;93.70;;;;;;2095377;28;20399;-89
2022/02/04 08:20:06;;;;;;;4.18;2.90;;;8.10;93.70;;;;;;2097260;28;20103;-88
2022/02/04 08:23:34;;;;;;;5.45;3.45;;;8.00;93.70;;;;;;2094376;28;20060;-89
2022/02/04 08:25:23;;;;;;;5.70;3.60;;;8.00;94.00;;;;;;2090206;28;20048;-89
2022/02/04 08:26:18;;;;;;;4.63;3.30;;;8.00;93.70;;;;;;2086784;28;20040;-89
2022/02/04 08:31:00;;;;;;;7.07;3.80;;;8.10;93.80;;;;;;2093611;28;20060;-89
2022/02/04 08:32:20;;;;;;;5.88;3.72;;;8.10;93.80;;;;;;2091576;28;20045;-88
2022/02/04 08:34:37;;;;;;;6.55;4.05;;;8.10;93.80;;;;;;2076301;28;20515;-89
2022/02/04 08:38:41;;;;;;;5.95;3.78;;;8.00;93.80;;;;;;2097379;28;20155;-88
2022/02/04 08:46:40;;;;;;;6.75;4.20;;;8.10;93.80;;;;;;2081636;28;20041;-89
2022/02/04 08:50:59;;;;;;;5.53;4.07;;;8.00;93.90;;;;;;2090038;28;20037;-89
2022/02/04 08:55:47;;;;;;;6.80;3.67;;;8.10;93.90;;;;;;2082070;28;20578;-89
2022/02/04 08:56:36;;;;;;;6.38;4.35;;;8.10;93.90;;;;;;2084816;28;20045;-89
2022/02/04 08:58:48;;;;;;;6.47;4.22;;;8.10;93.90;;;;;;2092850;28;20489;-89